Azalea Ace — A8ZJ6 — position and weather

sailwx.info

Track history (hours):
 
Tides and Currents Weather Stations Pressure Air Temp Water Temp Dewpoint Dewpoint Depression Visibility Wind Speed Wind Dir Waves Ship Positions

Azalea Ace

Last reported at 2015-Jan-24 13:11 UTC. Time now 2015-Feb-02 00:16 UTC.
Position N 34°53' E 140°05'.
Warning: this ship's position is 8 days out of date.

Length 180 m; draft 8.6 m.

Type: Cargo ship. MMSI: 636015228.

Date/timePositionNaut miles runAvg speedWind from/ knotsBaromVisibWave heightAir tempDewpointWater temp
2015-Jan-24 13:11N 34°53' E 140°05'1219.0
2015-Jan-24 12:33N 34°49' E 139°51'1413.6
2015-Jan-24 11:34N 35°01' E 139°42'1414.1
2015-Jan-24 10:33N 35°15' E 139°46'1212.0
2015-Jan-24 09:33N 35°26' E 139°44'4 3.8
2015-Jan-24 08:33N 35°30' E 139°46'0 0.0
2015-Jan-24 07:33N 35°30' E 139°46'0 0.0
2015-Jan-24 06:33N 35°30' E 139°46'0 0.0
2015-Jan-24 05:33N 35°30' E 139°46'0 0.0
2015-Jan-24 04:33N 35°30' E 139°46'0 0.0
2015-Jan-24 03:33N 35°30' E 139°46'0 0.0
2015-Jan-24 02:33N 35°30' E 139°46'0 0.0
2015-Jan-24 01:33N 35°30' E 139°46'0 0.0
2015-Jan-24 00:33N 35°30' E 139°46'0 0.0
2015-Jan-23 23:33N 35°30' E 139°46'0 0.0
2015-Jan-23 22:33N 35°30' E 139°46'0 0.0
2015-Jan-23 21:33N 35°30' E 139°46'0 0.0
2015-Jan-23 20:33N 35°30' E 139°46'0 0.0
2015-Jan-23 19:33N 35°30' E 139°46'0 0.0
2015-Jan-23 18:30N 35°30' E 139°46'0 0.0
2015-Jan-23 17:33N 35°30' E 139°46'0 0.0
2015-Jan-23 16:33N 35°30' E 139°46'0 0.0
2015-Jan-23 15:33N 35°30' E 139°46'0 0.0
2015-Jan-23 14:30N 35°30' E 139°46'0 0.0
2015-Jan-23 13:30N 35°30' E 139°46'0 0.0
2015-Jan-23 12:33N 35°30' E 139°46'0 0.0
2015-Jan-23 11:33N 35°30' E 139°46'0 0.0
2015-Jan-23 10:33N 35°30' E 139°46'0 0.0
2015-Jan-23 09:33N 35°30' E 139°46'0 0.0
2015-Jan-23 08:33N 35°30' E 139°46'0 0.0
2015-Jan-23 07:33N 35°30' E 139°46'0 0.0
2015-Jan-23 06:33N 35°30' E 139°46'0 0.0
2015-Jan-23 05:30N 35°30' E 139°46'0 0.0
2015-Jan-23 04:33N 35°30' E 139°46'4 4.0
2015-Jan-23 03:33N 35°26' E 139°46'4 4.4
2015-Jan-23 02:32N 35°25' E 139°41'0 0.0
2015-Jan-23 01:33N 35°25' E 139°41'0 0.0
2015-Jan-23 00:32N 35°25' E 139°41'0 0.0
2015-Jan-22 23:32N 35°25' E 139°41'0 0.0
2015-Jan-22 22:32N 35°25' E 139°41'4 4.3
2015-Jan-22 21:33N 35°22' E 139°43'1212.1
2015-Jan-22 20:33N 35°10' E 139°46'8 8.2
2015-Jan-22 19:33N 35°02' E 139°43'1716.3
2015-Jan-22 18:33N 34°46' E 139°36'1513.4
2015-Jan-22 17:24N 34°38' E 139°52'2915.5
2015-Jan-22 15:33N 34°34' E 139°18'  
2015-Jan-19 10:23N 34°37' E 139°22'1315.2
2015-Jan-19 09:33N 34°41' E 139°36'1715.7
2015-Jan-19 08:27N 34°47' E 139°56'1516.6
2015-Jan-19 07:33N 34°55' E 140°11'1615.7
2015-Jan-19 06:33N 35°03' E 140°27'  
Track history (hours):
 
Tides and Currents Weather Stations Pressure Air Temp Water Temp Dewpoint Dewpoint Depression Visibility Wind Speed Wind Dir Waves Ship Positions

Azalea Ace

Last reported at 2015-Jan-24 13:11 UTC. Time now 2015-Feb-02 00:16 UTC.
Position N 34°53' E 140°05'.
Warning: this ship's position is 8 days out of date.

Length 180 m; draft 8.6 m.

Type: Cargo ship. MMSI: 636015228.

Date/timePositionNaut miles runAvg speedWind from/ knotsBaromVisibWave heightAir tempDewpointWater temp
2015-Jan-24 13:11N 34°53' E 140°05'1219.0
2015-Jan-24 12:33N 34°49' E 139°51'1413.6
2015-Jan-24 11:34N 35°01' E 139°42'1414.1
2015-Jan-24 10:33N 35°15' E 139°46'1212.0
2015-Jan-24 09:33N 35°26' E 139°44'4 3.8
2015-Jan-24 08:33N 35°30' E 139°46'0 0.0
2015-Jan-24 07:33N 35°30' E 139°46'0 0.0
2015-Jan-24 06:33N 35°30' E 139°46'0 0.0
2015-Jan-24 05:33N 35°30' E 139°46'0 0.0
2015-Jan-24 04:33N 35°30' E 139°46'0 0.0
2015-Jan-24 03:33N 35°30' E 139°46'0 0.0
2015-Jan-24 02:33N 35°30' E 139°46'0 0.0
2015-Jan-24 01:33N 35°30' E 139°46'0 0.0
2015-Jan-24 00:33N 35°30' E 139°46'0 0.0
2015-Jan-23 23:33N 35°30' E 139°46'0 0.0
2015-Jan-23 22:33N 35°30' E 139°46'0 0.0
2015-Jan-23 21:33N 35°30' E 139°46'0 0.0
2015-Jan-23 20:33N 35°30' E 139°46'0 0.0
2015-Jan-23 19:33N 35°30' E 139°46'0 0.0
2015-Jan-23 18:30N 35°30' E 139°46'0 0.0
2015-Jan-23 17:33N 35°30' E 139°46'0 0.0
2015-Jan-23 16:33N 35°30' E 139°46'0 0.0
2015-Jan-23 15:33N 35°30' E 139°46'0 0.0
2015-Jan-23 14:30N 35°30' E 139°46'0 0.0
2015-Jan-23 13:30N 35°30' E 139°46'0 0.0
2015-Jan-23 12:33N 35°30' E 139°46'0 0.0
2015-Jan-23 11:33N 35°30' E 139°46'0 0.0
2015-Jan-23 10:33N 35°30' E 139°46'0 0.0
2015-Jan-23 09:33N 35°30' E 139°46'0 0.0
2015-Jan-23 08:33N 35°30' E 139°46'0 0.0
2015-Jan-23 07:33N 35°30' E 139°46'0 0.0
2015-Jan-23 06:33N 35°30' E 139°46'0 0.0
2015-Jan-23 05:30N 35°30' E 139°46'0 0.0
2015-Jan-23 04:33N 35°30' E 139°46'4 4.0
2015-Jan-23 03:33N 35°26' E 139°46'4 4.4
2015-Jan-23 02:32N 35°25' E 139°41'0 0.0
2015-Jan-23 01:33N 35°25' E 139°41'0 0.0
2015-Jan-23 00:32N 35°25' E 139°41'0 0.0
2015-Jan-22 23:32N 35°25' E 139°41'0 0.0
2015-Jan-22 22:32N 35°25' E 139°41'4 4.3
2015-Jan-22 21:33N 35°22' E 139°43'1212.1
2015-Jan-22 20:33N 35°10' E 139°46'8 8.2
2015-Jan-22 19:33N 35°02' E 139°43'1716.3
2015-Jan-22 18:33N 34°46' E 139°36'1513.4
2015-Jan-22 17:24N 34°38' E 139°52'2915.5
2015-Jan-22 15:33N 34°34' E 139°18'  
2015-Jan-19 10:23N 34°37' E 139°22'1315.2
2015-Jan-19 09:33N 34°41' E 139°36'1715.7
2015-Jan-19 08:27N 34°47' E 139°56'1516.6
2015-Jan-19 07:33N 34°55' E 140°11'1615.7
2015-Jan-19 06:33N 35°03' E 140°27'  

Dump ship's entire track history